CheckWX is a tool to help pilots better visualize weather data.  It is not intended as a substitute for an official pre-flight weather briefing.

09:38:41 UTC

KHBG TAF
Hattiesburg Bobby L Chain Municipal Airport
Hattiesburg, Mississippi, USA
KHBG 230520Z 2306/2406 00000KT P6SM SKC FM231600 20004KT P6SM BKN050

Sep-23@
06:00 UTC

Sep-23 @ 06:00 UTC

Sep-23@
16:00 UTC

Sep-23 @ 16:00 UTC

KHBG 230520Z 2306/2406 00000KT P6SM SKC
Cloud Levels
  • Clear skies

Sep-23@
16:00 UTC

Sep-23 @ 16:00 UTC

Sep-24@
06:00 UTC

Sep-24 @ 06:00 UTC

FM231600 20004KT P6SM BKN050

From

From Standard forecast or significant change

Wind
  • 200° at 4 KTS
Cloud Levels
  • Broken at 5,000' AGL